createdAt,value
2018-11-22T00:00:03.758Z,1003.75
2018-11-22T00:01:03.761Z,1003.70
2018-11-22T00:02:03.737Z,1003.75
2018-11-22T00:03:03.736Z,1003.75
2018-11-22T00:04:03.715Z,1003.72
2018-11-22T00:05:03.725Z,1003.80
2018-11-22T00:06:03.707Z,1003.75
2018-11-22T00:07:03.701Z,1003.74
2018-11-22T00:08:03.678Z,1003.78
2018-11-22T00:09:03.681Z,1003.78
2018-11-22T00:10:03.663Z,1003.81
2018-11-22T00:11:03.652Z,1003.78
2018-11-22T00:12:03.641Z,1003.80
2018-11-22T00:13:03.619Z,1003.76
2018-11-22T00:14:03.626Z,1003.78
2018-11-22T00:15:03.628Z,1003.80
2018-11-22T00:16:03.604Z,1003.83
2018-11-22T00:17:03.581Z,1003.85
2018-11-22T00:18:03.580Z,1003.85
2018-11-22T00:19:03.567Z,1003.85
2018-11-22T00:20:03.547Z,1003.86
2018-11-22T00:21:03.561Z,1003.87
2018-11-22T00:22:03.518Z,1003.94
2018-11-22T00:23:03.544Z,1003.89
2018-11-22T00:24:03.509Z,1003.92
2018-11-22T00:25:03.496Z,1003.90
2018-11-22T00:26:03.499Z,1003.91
2018-11-22T00:27:03.493Z,1003.89
2018-11-22T00:28:03.465Z,1003.93
2018-11-22T00:29:03.460Z,1003.91
2018-11-22T00:30:03.446Z,1003.94
2018-11-22T00:31:03.446Z,1003.91
2018-11-22T00:32:03.436Z,1003.91
2018-11-22T00:33:03.414Z,1003.90
2018-11-22T00:34:03.395Z,1003.92
2018-11-22T00:35:03.384Z,1003.89
2018-11-22T00:36:03.397Z,1003.89
2018-11-22T00:37:03.383Z,1003.90
2018-11-22T00:38:03.367Z,1003.93
2018-11-22T00:39:03.349Z,1003.92
2018-11-22T00:40:03.339Z,1003.90
2018-11-22T00:41:03.329Z,1003.95
2018-11-22T00:42:03.364Z,1003.91
2018-11-22T00:43:03.304Z,1003.90
2018-11-22T00:44:03.321Z,1003.92
2018-11-22T00:45:03.288Z,1003.87
2018-11-22T00:46:03.281Z,1003.90
2018-11-22T00:47:04.245Z,1003.90
2018-11-22T00:48:03.262Z,1003.87
2018-11-22T00:49:03.246Z,1003.90
2018-11-22T00:50:03.244Z,1003.92
2018-11-22T00:51:03.225Z,1003.89
2018-11-22T00:52:03.228Z,1003.94
2018-11-22T00:53:03.200Z,1003.90
2018-11-22T00:54:03.212Z,1003.89
2018-11-22T00:55:03.222Z,1003.91
2018-11-22T00:56:03.171Z,1003.93
2018-11-22T00:57:03.162Z,1003.89
2018-11-22T00:58:03.170Z,1003.89
2018-11-22T00:59:03.147Z,1003.95
2018-11-22T01:00:03.136Z,1003.92
2018-11-22T01:01:03.133Z,1003.89
2018-11-22T01:02:03.110Z,1003.92
2018-11-22T01:03:03.105Z,1003.94
2018-11-22T01:04:03.092Z,1003.90
2018-11-22T01:05:03.091Z,1003.96
2018-11-22T01:06:03.062Z,1003.92
2018-11-22T01:07:03.113Z,1003.93
2018-11-22T01:08:03.046Z,1003.95
2018-11-22T01:09:03.039Z,1003.93
2018-11-22T01:10:03.027Z,1003.93
2018-11-22T01:11:03.016Z,1003.97
2018-11-22T01:12:03.022Z,1003.94
2018-11-22T01:13:03.009Z,1003.95
2018-11-22T01:14:02.994Z,1003.97
2018-11-22T01:15:02.967Z,1003.97
2018-11-22T01:16:02.962Z,1003.98
2018-11-22T01:17:02.982Z,1004.01
2018-11-22T01:18:02.948Z,1004.00
2018-11-22T01:19:02.942Z,1004.04
2018-11-22T01:20:02.922Z,1003.98
2018-11-22T01:21:02.911Z,1003.97
2018-11-22T01:22:02.908Z,1004.02
2018-11-22T01:23:02.908Z,1004.04
2018-11-22T01:24:02.879Z,1004.02
2018-11-22T01:25:02.874Z,1004.04
2018-11-22T01:26:02.867Z,1003.97
2018-11-22T01:27:02.847Z,1004.00
2018-11-22T01:28:02.850Z,1003.97
2018-11-22T01:29:02.829Z,1003.98
2018-11-22T01:30:02.835Z,1004.01
2018-11-22T01:31:02.818Z,1004.00
2018-11-22T01:32:02.829Z,1004.02
2018-11-22T01:33:02.801Z,1003.98
2018-11-22T01:34:02.787Z,1003.98
2018-11-22T01:35:02.771Z,1003.99
2018-11-22T01:36:02.753Z,1004.03
2018-11-22T01:37:02.803Z,1004.03
2018-11-22T01:38:02.734Z,1004.03
2018-11-22T01:39:02.716Z,1004.04
2018-11-22T01:40:02.721Z,1003.98
2018-11-22T01:41:02.725Z,1004.02
2018-11-22T01:42:02.690Z,1004.02
2018-11-22T01:43:02.699Z,1004.05
2018-11-22T01:44:02.669Z,1004.03
2018-11-22T01:45:02.660Z,1004.01
2018-11-22T01:46:02.677Z,1004.00
2018-11-22T01:47:02.630Z,1004.00
2018-11-22T01:48:02.643Z,1003.99
2018-11-22T01:49:02.690Z,1004.01
2018-11-22T01:50:02.634Z,1003.95
2018-11-22T01:51:02.592Z,1004.01
2018-11-22T01:52:02.600Z,1003.95
2018-11-22T01:53:02.585Z,1003.98
2018-11-22T01:54:02.581Z,1003.95
2018-11-22T01:55:02.554Z,1003.96
2018-11-22T01:56:02.547Z,1003.95
2018-11-22T01:57:02.532Z,1003.89
2018-11-22T01:58:02.534Z,1003.91
2018-11-22T01:59:02.533Z,1003.91
2018-11-22T02:00:02.500Z,1003.95
2018-11-22T02:01:02.505Z,1003.91
2018-11-22T02:02:02.508Z,1003.92
2018-11-22T02:03:02.485Z,1003.90
2018-11-22T02:04:02.464Z,1003.87
2018-11-22T02:05:02.452Z,1003.92
2018-11-22T02:06:02.431Z,1003.85
2018-11-22T02:07:02.441Z,1003.88
2018-11-22T02:08:02.437Z,1003.86
2018-11-22T02:09:02.406Z,1003.85
2018-11-22T02:10:02.392Z,1003.89
2018-11-22T02:11:02.397Z,1003.86
2018-11-22T02:12:02.385Z,1003.91
2018-11-22T02:13:02.386Z,1003.88
2018-11-22T02:14:02.367Z,1003.88
2018-11-22T02:15:02.354Z,1003.91
2018-11-22T02:16:02.391Z,1003.89
2018-11-22T02:17:02.352Z,1003.91
2018-11-22T02:18:02.316Z,1003.87
2018-11-22T02:19:02.302Z,1003.88
2018-11-22T02:20:02.289Z,1003.91
2018-11-22T02:21:02.283Z,1003.90
2018-11-22T02:22:02.292Z,1003.90
2018-11-22T02:23:02.256Z,1003.91
2018-11-22T02:24:02.247Z,1003.90
2018-11-22T02:25:02.242Z,1003.83
2018-11-22T02:26:02.323Z,1003.89
2018-11-22T02:27:02.233Z,1003.85
2018-11-22T02:28:02.220Z,1003.85
2018-11-22T02:29:02.196Z,1003.81
2018-11-22T02:30:02.190Z,1003.79
2018-11-22T02:31:02.183Z,1003.83
2018-11-22T02:32:02.185Z,1003.83
2018-11-22T02:33:02.162Z,1003.79
2018-11-22T02:34:02.159Z,1003.81
2018-11-22T02:35:02.138Z,1003.79
2018-11-22T02:36:02.158Z,1003.84
2018-11-22T02:37:02.120Z,1003.86
2018-11-22T02:38:02.097Z,1003.85
2018-11-22T02:39:02.130Z,1003.85
2018-11-22T02:40:02.083Z,1003.83
2018-11-22T02:41:02.069Z,1003.84
2018-11-22T02:42:02.083Z,1003.79
2018-11-22T02:43:02.048Z,1003.87
2018-11-22T02:44:02.045Z,1003.82
2018-11-22T02:45:02.037Z,1003.82
2018-11-22T02:46:02.026Z,1003.82
2018-11-22T02:47:02.010Z,1003.76
2018-11-22T02:48:02.008Z,1003.75
2018-11-22T02:49:02.004Z,1003.74
2018-11-22T02:50:01.977Z,1003.71
2018-11-22T02:51:01.970Z,1003.77
2018-11-22T02:52:01.951Z,1003.74
2018-11-22T02:53:01.986Z,1003.71
2018-11-22T02:54:01.938Z,1003.69
2018-11-22T02:55:01.920Z,1003.67
2018-11-22T02:56:01.912Z,1003.73
2018-11-22T02:57:01.909Z,1003.68
2018-11-22T02:58:01.895Z,1003.71
2018-11-22T02:59:01.911Z,1003.73
2018-11-22T03:00:01.894Z,1003.72
2018-11-22T03:01:01.860Z,1003.73
2018-11-22T03:02:01.845Z,1003.74
2018-11-22T03:03:01.841Z,1003.75
2018-11-22T03:04:01.827Z,1003.72
2018-11-22T03:05:01.859Z,1003.69
2018-11-22T03:06:01.820Z,1003.73
2018-11-22T03:07:01.805Z,1003.71
2018-11-22T03:08:01.850Z,1003.72
2018-11-22T03:09:01.782Z,1003.68
2018-11-22T03:10:01.764Z,1003.60
2018-11-22T03:11:01.780Z,1003.65
2018-11-22T03:12:01.748Z,1003.74
2018-11-22T03:13:01.752Z,1003.68
2018-11-22T03:14:01.720Z,1003.69
2018-11-22T03:15:01.734Z,1003.77
2018-11-22T03:16:01.729Z,1003.78
2018-11-22T03:17:01.756Z,1003.77
2018-11-22T03:18:01.704Z,1003.78
2018-11-22T03:19:01.698Z,1003.76
2018-11-22T03:20:01.685Z,1003.75
2018-11-22T03:21:01.661Z,1003.72
2018-11-22T03:22:01.685Z,1003.73
2018-11-22T03:23:01.639Z,1003.75
2018-11-22T03:24:01.621Z,1003.75
2018-11-22T03:25:01.654Z,1003.78
2018-11-22T03:26:01.601Z,1003.78
2018-11-22T03:27:01.604Z,1003.80
2018-11-22T03:28:01.578Z,1003.75
2018-11-22T03:29:01.573Z,1003.74
2018-11-22T03:30:01.567Z,1003.74
2018-11-22T03:31:01.564Z,1003.73
2018-11-22T03:32:01.541Z,1003.74
2018-11-22T03:33:01.558Z,1003.72
2018-11-22T03:34:01.508Z,1003.72
2018-11-22T03:35:01.509Z,1003.71
2018-11-22T03:36:01.496Z,1003.72
2018-11-22T03:37:01.488Z,1003.72
2018-11-22T03:38:01.497Z,1003.69
2018-11-22T03:39:01.465Z,1003.71
2018-11-22T03:40:01.454Z,1003.69
2018-11-22T03:41:01.441Z,1003.63
2018-11-22T03:42:01.424Z,1003.60
2018-11-22T03:43:01.466Z,1003.66
2018-11-22T03:44:01.409Z,1003.60
2018-11-22T03:45:01.421Z,1003.63
2018-11-22T03:46:01.382Z,1003.62
2018-11-22T03:47:01.370Z,1003.59
2018-11-22T03:48:01.382Z,1003.60
2018-11-22T03:49:01.361Z,1003.60
2018-11-22T03:50:01.354Z,1003.58
2018-11-22T03:51:01.333Z,1003.63
2018-11-22T03:52:01.398Z,1003.62
2018-11-22T03:53:01.340Z,1003.67
2018-11-22T03:54:01.339Z,1003.66
2018-11-22T03:55:01.350Z,1003.66
2018-11-22T03:56:01.310Z,1003.67
2018-11-22T03:57:01.275Z,1003.66
2018-11-22T03:58:01.260Z,1003.63
2018-11-22T03:59:01.259Z,1003.66
2018-11-22T04:00:01.257Z,1003.64
2018-11-22T04:01:01.395Z,1003.64
2018-11-22T04:02:01.219Z,1003.67
2018-11-22T04:03:01.206Z,1003.65
2018-11-22T04:04:01.198Z,1003.66
2018-11-22T04:05:01.233Z,1003.61
2018-11-22T04:06:01.182Z,1003.60
2018-11-22T04:07:01.175Z,1003.64
2018-11-22T04:08:01.172Z,1003.62
2018-11-22T04:09:01.176Z,1003.62
2018-11-22T04:10:01.131Z,1003.60
2018-11-22T04:11:01.133Z,1003.58
2018-11-22T04:12:01.118Z,1003.68
2018-11-22T04:13:01.097Z,1003.66
2018-11-22T04:14:01.107Z,1003.63
2018-11-22T04:15:01.111Z,1003.62
2018-11-22T04:16:01.091Z,1003.66
2018-11-22T04:17:01.054Z,1003.64
2018-11-22T04:18:01.057Z,1003.63
2018-11-22T04:19:01.041Z,1003.62
2018-11-22T04:20:01.028Z,1003.59
2018-11-22T04:21:01.021Z,1003.64
2018-11-22T04:22:01.027Z,1003.59
2018-11-22T04:23:01.010Z,1003.63
2018-11-22T04:24:00.988Z,1003.63
2018-11-22T04:25:00.976Z,1003.64
2018-11-22T04:26:01.000Z,1003.68
2018-11-22T04:27:01.141Z,1003.66
2018-11-22T04:28:00.980Z,1003.63
2018-11-22T04:29:01.005Z,1003.63
2018-11-22T04:30:00.923Z,1003.61
2018-11-22T04:31:00.925Z,1003.59
2018-11-22T04:32:00.927Z,1003.58
2018-11-22T04:33:00.897Z,1003.59
2018-11-22T04:34:00.978Z,1003.62
2018-11-22T04:35:00.882Z,1003.58
2018-11-22T04:36:00.869Z,1003.60
2018-11-22T04:37:00.846Z,1003.63
2018-11-22T04:38:00.844Z,1003.60
2018-11-22T04:39:00.825Z,1003.62
2018-11-22T04:40:00.848Z,1003.63
2018-11-22T04:41:00.858Z,1003.63
2018-11-22T04:42:00.841Z,1003.61
2018-11-22T04:43:00.834Z,1003.67
2018-11-22T04:44:00.779Z,1003.64
2018-11-22T04:45:00.776Z,1003.67
2018-11-22T04:46:00.770Z,1003.64
2018-11-22T04:47:00.742Z,1003.61
2018-11-22T04:48:00.740Z,1003.65
2018-11-22T04:49:00.716Z,1003.65
2018-11-22T04:50:00.728Z,1003.65
2018-11-22T04:51:00.719Z,1003.63
2018-11-22T04:52:00.687Z,1003.67
2018-11-22T04:53:00.701Z,1003.63
2018-11-22T04:54:00.671Z,1003.66
2018-11-22T04:55:00.658Z,1003.66
2018-11-22T04:56:00.691Z,1003.65
2018-11-22T04:57:00.640Z,1003.60
2018-11-22T04:58:00.623Z,1003.61
2018-11-22T04:59:00.628Z,1003.58
2018-11-22T05:00:00.597Z,1003.54
2018-11-22T05:01:00.630Z,1003.56
2018-11-22T05:02:00.585Z,1003.58
2018-11-22T05:03:00.613Z,1003.59
2018-11-22T05:04:00.590Z,1003.60
2018-11-22T05:05:00.558Z,1003.58
2018-11-22T05:06:00.541Z,1003.58
2018-11-22T05:07:00.539Z,1003.57
2018-11-22T05:08:00.521Z,1003.59
2018-11-22T05:09:00.507Z,1003.61
2018-11-22T05:10:00.504Z,1003.60
2018-11-22T05:11:00.485Z,1003.59
2018-11-22T05:12:00.494Z,1003.58
2018-11-22T05:13:00.471Z,1003.61
2018-11-22T05:14:00.487Z,1003.58
2018-11-22T05:15:00.448Z,1003.57
2018-11-22T05:16:00.437Z,1003.56
2018-11-22T05:17:00.438Z,1003.56
2018-11-22T05:18:00.424Z,1003.56
2018-11-22T05:19:00.417Z,1003.54
2018-11-22T05:20:00.392Z,1003.52
2018-11-22T05:21:00.382Z,1003.54
2018-11-22T05:22:00.414Z,1003.55
2018-11-22T05:23:00.372Z,1003.54
2018-11-22T05:24:00.356Z,1003.51
2018-11-22T05:25:00.366Z,1003.46
2018-11-22T05:26:00.328Z,1003.51
2018-11-22T05:27:00.331Z,1003.53
2018-11-22T05:28:00.375Z,1003.51
2018-11-22T05:29:00.322Z,1003.54
2018-11-22T05:30:00.298Z,1003.49
2018-11-22T05:31:00.293Z,1003.46
2018-11-22T05:32:00.255Z,1003.49
2018-11-22T05:33:00.270Z,1003.49
2018-11-22T05:34:00.239Z,1003.51
2018-11-22T05:35:00.239Z,1003.48
2018-11-22T05:36:00.222Z,1003.50
2018-11-22T05:37:00.232Z,1003.48
2018-11-22T05:38:00.197Z,1003.52
2018-11-22T05:39:00.194Z,1003.45
2018-11-22T05:40:00.199Z,1003.51
2018-11-22T05:41:00.164Z,1003.48
2018-11-22T05:42:00.155Z,1003.48
2018-11-22T05:43:00.142Z,1003.49
2018-11-22T05:44:00.167Z,1003.51
2018-11-22T05:45:00.138Z,1003.49
2018-11-22T05:46:00.123Z,1003.53
2018-11-22T05:47:02.640Z,1003.49
2018-11-22T05:48:00.098Z,1003.55
2018-11-22T05:49:00.080Z,1003.49
2018-11-22T05:50:00.095Z,1003.53
2018-11-22T05:51:00.089Z,1003.55
2018-11-22T05:52:00.066Z,1003.52
2018-11-22T05:53:00.034Z,1003.52
2018-11-22T05:54:00.032Z,1003.53
2018-11-22T05:55:00.034Z,1003.53
2018-11-22T05:56:00.005Z,1003.54
2018-11-22T05:57:00.010Z,1003.55
2018-11-22T05:58:00.014Z,1003.58
2018-11-22T05:59:00.030Z,1003.59
2018-11-22T05:59:59.982Z,1003.51
2018-11-22T06:00:59.948Z,1003.53
2018-11-22T06:01:59.939Z,1003.55
2018-11-22T06:02:59.929Z,1003.51
2018-11-22T06:03:59.932Z,1003.55
2018-11-22T06:04:59.912Z,1003.54
2018-11-22T06:05:59.899Z,1003.55
2018-11-22T06:06:59.940Z,1003.56
2018-11-22T06:07:59.893Z,1003.52
2018-11-22T06:08:59.883Z,1003.53
2018-11-22T06:09:59.899Z,1003.54
2018-11-22T06:10:59.887Z,1003.52
2018-11-22T06:11:59.844Z,1003.54
2018-11-22T06:12:59.866Z,1003.54
2018-11-22T06:13:59.898Z,1003.52
2018-11-22T06:14:59.824Z,1003.55
2018-11-22T06:15:59.803Z,1003.54
2018-11-22T06:16:59.805Z,1003.52
2018-11-22T06:17:59.771Z,1003.56
2018-11-22T06:18:59.815Z,1003.60
2018-11-22T06:19:59.754Z,1003.60
2018-11-22T06:20:59.737Z,1003.58
2018-11-22T06:21:59.781Z,1003.60
2018-11-22T06:22:59.735Z,1003.60
2018-11-22T06:23:59.721Z,1003.61
2018-11-22T06:25:03.630Z,1003.65
2018-11-22T06:25:59.683Z,1003.61
2018-11-22T06:26:59.675Z,1003.61
2018-11-22T06:27:59.683Z,1003.63
2018-11-22T06:28:59.678Z,1003.67
2018-11-22T06:29:59.643Z,1003.64
2018-11-22T06:30:59.637Z,1003.68
2018-11-22T06:31:59.633Z,1003.68
2018-11-22T06:32:59.617Z,1003.64
2018-11-22T06:33:59.639Z,1003.65
2018-11-22T06:34:59.594Z,1003.64
2018-11-22T06:35:59.583Z,1003.67
2018-11-22T06:36:59.571Z,1003.66
2018-11-22T06:37:59.558Z,1003.70
2018-11-22T06:38:59.576Z,1003.67
2018-11-22T06:39:59.552Z,1003.70
2018-11-22T06:40:59.542Z,1003.64
2018-11-22T06:41:59.516Z,1003.64
2018-11-22T06:42:59.506Z,1003.67
2018-11-22T06:43:59.509Z,1003.67
2018-11-22T06:44:59.478Z,1003.67
2018-11-22T06:45:59.492Z,1003.68
2018-11-22T06:46:59.494Z,1003.73
2018-11-22T06:47:59.490Z,1003.71
2018-11-22T06:48:59.444Z,1003.71
2018-11-22T06:49:59.436Z,1003.66
2018-11-22T06:50:59.422Z,1003.70
2018-11-22T06:51:59.419Z,1003.72
2018-11-22T06:52:59.413Z,1003.70
2018-11-22T06:53:59.385Z,1003.71
2018-11-22T06:54:59.409Z,1003.73
2018-11-22T06:55:59.407Z,1003.69
2018-11-22T06:56:59.352Z,1003.68
2018-11-22T06:57:59.351Z,1003.74
2018-11-22T06:58:59.376Z,1003.74
2018-11-22T06:59:59.343Z,1003.74
2018-11-22T07:00:59.348Z,1003.73
2018-11-22T07:01:59.323Z,1003.75
2018-11-22T07:02:59.308Z,1003.75
2018-11-22T07:03:59.330Z,1003.73
2018-11-22T07:04:59.263Z,1003.73
2018-11-22T07:05:59.272Z,1003.78
2018-11-22T07:06:59.245Z,1003.72
2018-11-22T07:07:59.256Z,1003.75
2018-11-22T07:08:59.275Z,1003.72
2018-11-22T07:09:59.222Z,1003.71
2018-11-22T07:10:59.204Z,1003.73
2018-11-22T07:11:59.192Z,1003.73
2018-11-22T07:12:59.191Z,1003.76
2018-11-22T07:13:59.224Z,1003.75
2018-11-22T07:14:59.173Z,1003.76
2018-11-22T07:15:59.155Z,1003.72
2018-11-22T07:16:59.139Z,1003.75
2018-11-22T07:17:59.131Z,1003.73
2018-11-22T07:18:59.120Z,1003.74
2018-11-22T07:19:59.116Z,1003.75
2018-11-22T07:20:59.104Z,1003.79
2018-11-22T07:21:59.139Z,1003.75
2018-11-22T07:22:59.078Z,1003.79
2018-11-22T07:23:59.089Z,1003.79
2018-11-22T07:24:59.055Z,1003.80
2018-11-22T07:25:59.048Z,1003.78
2018-11-22T07:26:59.052Z,1003.81
2018-11-22T07:27:59.028Z,1003.83
2018-11-22T07:28:59.009Z,1003.81
2018-11-22T07:29:59.011Z,1003.81
2018-11-22T07:30:59.009Z,1003.79
2018-11-22T07:31:58.987Z,1003.80
2018-11-22T07:32:58.979Z,1003.85
2018-11-22T07:33:58.976Z,1003.83
2018-11-22T07:34:58.962Z,1003.83
2018-11-22T07:35:58.953Z,1003.82
2018-11-22T07:36:58.961Z,1003.85
2018-11-22T07:37:58.917Z,1003.90
2018-11-22T07:38:58.915Z,1003.91
2018-11-22T07:39:58.940Z,1003.91
2018-11-22T07:40:58.910Z,1003.90
2018-11-22T07:41:58.898Z,1003.91
2018-11-22T07:42:58.862Z,1003.90
2018-11-22T07:43:58.852Z,1003.93
2018-11-22T07:44:58.839Z,1003.89
2018-11-22T07:45:58.879Z,1003.93
2018-11-22T07:46:58.837Z,1003.87
2018-11-22T07:47:58.815Z,1003.90
2018-11-22T07:48:58.813Z,1003.90
2018-11-22T07:49:58.786Z,1003.89
2018-11-22T07:50:58.786Z,1003.92
2018-11-22T07:51:58.796Z,1003.90
2018-11-22T07:52:58.762Z,1003.87
2018-11-22T07:53:58.751Z,1003.92
2018-11-22T07:54:58.744Z,1003.91
2018-11-22T07:55:58.734Z,1003.90
2018-11-22T07:56:58.714Z,1003.88
2018-11-22T07:57:58.708Z,1003.91
2018-11-22T07:58:58.697Z,1003.92
2018-11-22T07:59:58.684Z,1003.90
2018-11-22T08:00:58.673Z,1003.91
2018-11-22T08:01:58.707Z,1003.86
2018-11-22T08:02:58.645Z,1003.90
2018-11-22T08:03:58.639Z,1003.89
2018-11-22T08:04:58.645Z,1003.86
2018-11-22T08:05:58.625Z,1003.89
2018-11-22T08:06:58.627Z,1003.88
2018-11-22T08:07:58.592Z,1003.88
2018-11-22T08:08:58.589Z,1003.87
2018-11-22T08:09:58.579Z,1003.87
2018-11-22T08:10:58.568Z,1003.89
2018-11-22T08:11:58.556Z,1003.83
2018-11-22T08:12:58.632Z,1003.85
2018-11-22T08:13:58.561Z,1003.87
2018-11-22T08:14:58.517Z,1003.85
2018-11-22T08:15:58.512Z,1003.82
2018-11-22T08:16:58.499Z,1003.84
2018-11-22T08:17:58.572Z,1003.86
2018-11-22T08:18:58.494Z,1003.84
2018-11-22T08:19:58.475Z,1003.78
2018-11-22T08:21:04.581Z,1003.77
2018-11-22T08:21:58.459Z,1003.73
2018-11-22T08:22:58.439Z,1003.74
2018-11-22T08:23:58.445Z,1003.77
2018-11-22T08:24:58.424Z,1003.81
2018-11-22T08:25:58.408Z,1003.86
2018-11-22T08:26:58.411Z,1003.76
2018-11-22T08:27:58.415Z,1003.86
2018-11-22T08:28:58.371Z,1003.83
2018-11-22T08:29:58.369Z,1003.79
2018-11-22T08:30:58.361Z,1003.84
2018-11-22T08:31:58.352Z,1003.88
2018-11-22T08:32:58.344Z,1003.80
2018-11-22T08:33:58.324Z,1003.81
2018-11-22T08:34:58.359Z,1003.83
2018-11-22T08:35:58.299Z,1003.83
2018-11-22T08:36:58.330Z,1003.81
2018-11-22T08:37:58.281Z,1003.80
2018-11-22T08:38:58.355Z,1003.80
2018-11-22T08:39:58.268Z,1003.84
2018-11-22T08:40:58.246Z,1003.85
2018-11-22T08:41:58.240Z,1003.85
2018-11-22T08:42:58.233Z,1003.84
2018-11-22T08:43:58.221Z,1003.88
2018-11-22T08:44:58.229Z,1003.88
2018-11-22T08:45:58.219Z,1003.91
2018-11-22T08:46:58.179Z,1003.93
2018-11-22T08:47:58.172Z,1003.92
2018-11-22T08:48:58.164Z,1003.96
2018-11-22T08:49:58.169Z,1003.95
2018-11-22T08:50:58.148Z,1003.92
2018-11-22T08:51:58.249Z,1003.96
2018-11-22T08:52:58.119Z,1003.95
2018-11-22T08:53:58.119Z,1003.98
2018-11-22T08:54:58.108Z,1003.94
2018-11-22T08:55:58.090Z,1003.93
2018-11-22T08:56:58.091Z,1003.92
2018-11-22T08:57:58.065Z,1003.90
2018-11-22T08:58:58.053Z,1003.88
2018-11-22T08:59:58.042Z,1003.82
2018-11-22T09:00:58.073Z,1003.86
2018-11-22T09:01:58.111Z,1003.90
2018-11-22T09:02:58.031Z,1003.91
2018-11-22T09:03:58.005Z,1003.94
2018-11-22T09:04:58.025Z,1003.93
2018-11-22T09:05:57.986Z,1003.88
2018-11-22T09:06:57.968Z,1003.92
2018-11-22T09:07:57.968Z,1003.92
2018-11-22T09:08:58.057Z,1003.92
2018-11-22T09:10:02.415Z,1003.93
2018-11-22T09:10:57.961Z,1003.92
2018-11-22T09:11:57.913Z,1003.95
2018-11-22T09:12:57.941Z,1003.94
2018-11-22T09:13:57.930Z,1003.98
2018-11-22T09:14:57.934Z,1004.02
2018-11-22T09:15:57.892Z,1004.02
2018-11-22T09:16:57.861Z,1004.05
2018-11-22T09:17:57.850Z,1004.04
2018-11-22T09:18:57.904Z,1004.06
2018-11-22T09:19:57.828Z,1004.05
2018-11-22T09:20:57.833Z,1004.13
2018-11-22T09:21:57.812Z,1004.06
2018-11-22T09:22:57.818Z,1004.09
2018-11-22T09:23:57.789Z,1004.07
2018-11-22T09:24:57.809Z,1004.10
2018-11-22T09:25:57.764Z,1004.07
2018-11-22T09:26:57.750Z,1003.99
2018-11-22T09:27:57.765Z,1004.03
2018-11-22T09:28:57.736Z,1004.06
2018-11-22T09:29:57.724Z,1004.02
2018-11-22T09:30:57.725Z,1004.07
2018-11-22T09:31:57.702Z,1004.02
2018-11-22T09:32:57.701Z,1004.01
2018-11-22T09:33:57.693Z,1004.04
2018-11-22T09:34:58.195Z,1004.03
2018-11-22T09:35:57.704Z,1004.04
2018-11-22T09:36:57.669Z,1004.14
2018-11-22T09:37:57.645Z,1004.13
2018-11-22T09:38:57.651Z,1004.09
2018-11-22T09:39:57.609Z,1004.07
2018-11-22T09:40:57.621Z,1004.14
2018-11-22T09:41:57.611Z,1004.09
2018-11-22T09:42:57.584Z,1004.19
2018-11-22T09:43:57.578Z,1004.17
2018-11-22T09:44:57.557Z,1004.25
2018-11-22T09:45:57.550Z,1004.21
2018-11-22T09:46:57.580Z,1004.27
2018-11-22T09:47:57.537Z,1004.28
2018-11-22T09:48:57.518Z,1004.27
2018-11-22T09:49:57.509Z,1004.30
2018-11-22T09:50:57.491Z,1004.36
2018-11-22T09:51:57.491Z,1004.35
2018-11-22T09:52:57.523Z,1004.37
2018-11-22T09:53:57.469Z,1004.36
2018-11-22T09:54:57.455Z,1004.40
2018-11-22T09:55:57.444Z,1004.37
2018-11-22T09:56:57.449Z,1004.41
2018-11-22T09:57:57.447Z,1004.39
2018-11-22T09:58:57.409Z,1004.50
2018-11-22T09:59:57.406Z,1004.42
2018-11-22T10:00:57.388Z,1004.43
2018-11-22T10:01:57.377Z,1004.44
2018-11-22T10:02:57.417Z,1004.45
2018-11-22T10:03:57.352Z,1004.46
2018-11-22T10:04:57.471Z,1004.41
2018-11-22T10:05:57.392Z,1004.41
2018-11-22T10:06:57.343Z,1004.38
2018-11-22T10:07:57.324Z,1004.39
2018-11-22T10:08:57.302Z,1004.39
2018-11-22T10:09:57.291Z,1004.32
2018-11-22T10:10:57.299Z,1004.34
2018-11-22T10:11:57.277Z,1004.35
2018-11-22T10:12:57.277Z,1004.38
2018-11-22T10:13:57.251Z,1004.34
2018-11-22T10:14:57.271Z,1004.39
2018-11-22T10:15:57.229Z,1004.41
2018-11-22T10:16:57.237Z,1004.36
2018-11-22T10:17:57.215Z,1004.44
2018-11-22T10:18:57.202Z,1004.36
2018-11-22T10:19:57.188Z,1004.41
2018-11-22T10:20:57.191Z,1004.43
2018-11-22T10:21:57.162Z,1004.44
2018-11-22T10:22:57.179Z,1004.41
2018-11-22T10:23:57.205Z,1004.43
2018-11-22T10:24:57.131Z,1004.50
2018-11-22T10:25:57.123Z,1004.44
2018-11-22T10:26:57.115Z,1004.45
2018-11-22T10:27:57.118Z,1004.44
2018-11-22T10:28:57.092Z,1004.50
2018-11-22T10:29:57.080Z,1004.43
2018-11-22T10:30:57.072Z,1004.43
2018-11-22T10:31:57.065Z,1004.46
2018-11-22T10:32:57.061Z,1004.49
2018-11-22T10:33:57.055Z,1004.47
2018-11-22T10:34:57.040Z,1004.46
2018-11-22T10:35:57.029Z,1004.47
2018-11-22T10:36:57.031Z,1004.42
2018-11-22T10:37:57.144Z,1004.49
2018-11-22T10:38:56.995Z,1004.51
2018-11-22T10:39:57.015Z,1004.44
2018-11-22T10:40:56.981Z,1004.44
2018-11-22T10:41:56.964Z,1004.48
2018-11-22T10:42:56.940Z,1004.43
2018-11-22T10:43:56.953Z,1004.44
2018-11-22T10:44:56.920Z,1004.41
2018-11-22T10:45:56.915Z,1004.53
2018-11-22T10:46:56.914Z,1004.47
2018-11-22T10:47:56.904Z,1004.44
2018-11-22T10:48:56.876Z,1004.51
2018-11-22T10:49:56.878Z,1004.45
2018-11-22T10:50:56.861Z,1004.46
2018-11-22T10:51:56.859Z,1004.46
2018-11-22T10:52:56.842Z,1004.48
2018-11-22T10:53:56.880Z,1004.51
2018-11-22T10:54:56.814Z,1004.47
2018-11-22T10:55:56.803Z,1004.46
2018-11-22T10:56:56.798Z,1004.49
2018-11-22T10:57:56.799Z,1004.50
2018-11-22T10:58:56.789Z,1004.46
2018-11-22T10:59:56.776Z,1004.45
2018-11-22T11:00:56.773Z,1004.49
2018-11-22T11:01:56.738Z,1004.47
2018-11-22T11:02:56.733Z,1004.50
2018-11-22T11:03:56.723Z,1004.49
2018-11-22T11:04:56.714Z,1004.46
2018-11-22T11:05:56.734Z,1004.44
2018-11-22T11:06:56.703Z,1004.48
2018-11-22T11:07:56.681Z,1004.48
2018-11-22T11:08:56.675Z,1004.48
2018-11-22T11:09:56.667Z,1004.52
2018-11-22T11:10:56.648Z,1004.46
2018-11-22T11:11:56.649Z,1004.48
2018-11-22T11:12:56.630Z,1004.56
2018-11-22T11:13:56.612Z,1004.47
2018-11-22T11:14:56.627Z,1004.49
2018-11-22T11:15:56.594Z,1004.52
2018-11-22T11:16:56.593Z,1004.44
2018-11-22T11:17:56.578Z,1004.44
2018-11-22T11:18:56.564Z,1004.45
2018-11-22T11:19:56.573Z,1004.53
2018-11-22T11:20:56.540Z,1004.44
2018-11-22T11:21:56.539Z,1004.43
2018-11-22T11:22:56.535Z,1004.47
2018-11-22T11:23:56.541Z,1004.41
2018-11-22T11:24:56.507Z,1004.41
2018-11-22T11:25:56.498Z,1004.44
2018-11-22T11:26:56.481Z,1004.42
2018-11-22T11:27:56.465Z,1004.41
2018-11-22T11:28:56.452Z,1004.48
2018-11-22T11:29:56.456Z,1004.39
2018-11-22T11:30:56.436Z,1004.37
2018-11-22T11:31:56.463Z,1004.35
2018-11-22T11:32:56.419Z,1004.33
2018-11-22T11:33:56.400Z,1004.36
2018-11-22T11:34:56.392Z,1004.33
2018-11-22T11:35:56.395Z,1004.38
2018-11-22T11:36:56.377Z,1004.34
2018-11-22T11:37:56.364Z,1004.35
2018-11-22T11:38:56.351Z,1004.33
2018-11-22T11:40:00.602Z,1004.40
2018-11-22T11:40:56.358Z,1004.31
2018-11-22T11:41:56.338Z,1004.31
2018-11-22T11:42:56.311Z,1004.29
2018-11-22T11:43:56.302Z,1004.31
2018-11-22T11:44:56.317Z,1004.27
2018-11-22T11:45:56.271Z,1004.24
2018-11-22T11:46:56.276Z,1004.22
2018-11-22T11:47:56.254Z,1004.22
2018-11-22T11:48:56.240Z,1004.26
2018-11-22T11:49:56.240Z,1004.21
2018-11-22T11:50:56.252Z,1004.17
2018-11-22T11:51:56.241Z,1004.24
2018-11-22T11:52:56.198Z,1004.19
2018-11-22T11:53:56.199Z,1004.19
2018-11-22T11:54:56.183Z,1004.17
2018-11-22T11:55:56.173Z,1004.21
2018-11-22T11:56:56.176Z,1004.22
2018-11-22T11:57:56.168Z,1004.13
2018-11-22T11:58:56.138Z,1004.15
2018-11-22T11:59:56.129Z,1004.20
2018-11-22T12:00:56.114Z,1004.13
2018-11-22T12:01:56.111Z,1004.11
2018-11-22T12:02:56.107Z,1004.07
2018-11-22T12:03:56.114Z,1004.07
2018-11-22T12:04:56.101Z,1004.05